Time;durP1;ratioP1;P1;durP2;ratioP2;P2;SDS_P1;SDS_P2;PMS_P1;PMS_P2;Temp;Humidity;BMP_temperature;BMP_pressure;BME280_temperature;BME280_humidity;BME280_pressure;Samples;Min_cycle;Max_cycle;Signal;HPM_P1;HPM_P2
2023/09/10 00:01:34;;;;;;;7.72;3.10;;;;;;;13.10;58.57;101124.82;1701031;84;21034;-67
2023/09/10 00:04:04;;;;;;;4.78;2.85;;;;;;;13.07;58.75;101123.84;1681041;84;21098;-67
2023/09/10 00:06:33;;;;;;;5.33;3.08;;;;;;;13.04;58.88;101128.36;1700663;84;21469;-67
2023/09/10 00:09:03;;;;;;;14.13;3.40;;;;;;;12.97;59.04;101129.63;1700837;83;21046;-66
2023/09/10 00:11:33;;;;;;;5.97;2.77;;;;;;;12.93;59.23;101124.72;1659378;84;21078;-68
2023/09/10 00:14:02;;;;;;;4.17;2.50;;;;;;;12.90;59.37;101134.21;1701010;84;21055;-66
2023/09/10 00:16:31;;;;;;;3.90;2.40;;;;;;;12.89;59.53;101135.78;1700697;83;21070;-66
2023/09/10 00:19:01;;;;;;;5.75;3.10;;;;;;;12.89;59.54;101132.51;1700941;84;21023;-67
2023/09/10 00:21:31;;;;;;;4.37;2.65;;;;;;;12.88;59.57;101143.19;1700852;83;21446;-66
2023/09/10 00:24:00;;;;;;;4.95;2.98;;;;;;;12.87;59.59;101146.13;1700832;84;21044;-66
2023/09/10 00:26:30;;;;;;;4.78;2.60;;;;;;;12.82;59.56;101143.11;1701063;83;21067;-66
2023/09/10 00:28:59;;;;;;;5.42;2.62;;;;;;;12.76;59.61;101142.51;1700841;84;21062;-67
2023/09/10 00:31:29;;;;;;;6.30;2.58;;;;;;;12.70;59.73;101148.27;1681349;84;21466;-66
2023/09/10 00:33:58;;;;;;;5.37;2.65;;;;;;;12.73;59.80;101150.62;1700787;84;21050;-66
2023/09/10 00:36:28;;;;;;;4.28;2.55;;;;;;;12.77;59.76;101151.94;1608509;89;21059;-66
2023/09/10 00:38:57;;;;;;;5.92;2.90;;;;;;;12.80;59.78;101152.08;1608412;89;21486;-66
2023/09/10 00:41:28;;;;;;;6.53;2.70;;;;;;;12.78;59.83;101145.39;1608271;89;21114;-67
2023/09/10 00:43:57;;;;;;;7.25;2.87;;;;;;;12.77;59.95;101149.19;1608461;89;21035;-66
2023/09/10 00:46:26;;;;;;;5.50;2.80;;;;;;;12.76;60.03;101146.11;1608449;89;21169;-67
2023/09/10 00:48:56;;;;;;;8.95;3.85;;;;;;;12.77;59.99;101149.19;1608515;89;21098;-65
2023/09/10 00:51:26;;;;;;;9.93;3.67;;;;;;;12.76;60.05;101150.77;1588127;89;21100;-66
2023/09/10 00:53:55;;;;;;;8.33;3.77;;;;;;;12.75;60.12;101153.18;1607851;84;21046;-67
2023/09/10 00:56:24;;;;;;;10.28;3.75;;;;;;;12.71;60.24;101151.34;1718694;83;21090;-67
2023/09/10 00:58:53;;;;;;;6.20;3.33;;;;;;;12.69;60.44;101153.43;1720701;83;21134;-66
2023/09/10 01:01:23;;;;;;;6.87;3.20;;;;;;;12.64;60.59;101154.53;1700531;83;21447;-65
2023/09/10 01:03:52;;;;;;;8.68;3.42;;;;;;;12.57;60.74;101148.95;1720653;83;21055;-66
2023/09/10 01:06:22;;;;;;;6.10;3.08;;;;;;;12.53;60.90;101151.76;1700361;83;21034;-66
2023/09/10 01:08:51;;;;;;;7.12;2.90;;;;;;;12.55;60.94;101155.17;1700345;83;21110;-67
2023/09/10 01:11:35;;;;;;;5.15;2.77;;;;;;;12.56;60.88;101150.52;1720504;83;21486;-66
2023/09/10 01:14:43;;;;;;;6.12;3.00;;;;;;;12.54;60.91;101153.46;1720568;83;21074;-65
2023/09/10 01:17:16;;;;;;;;;;;;;;;12.53;61.02;101152.28;1723040;83;21568;-65
2023/09/10 01:19:54;;;;;;;8.48;3.12;;;;;;;12.49;61.15;101152.33;1720462;83;20211;-65
2023/09/10 01:22:34;;;;;;;5.78;3.15;;;;;;;12.41;61.28;101151.92;1720554;83;21039;-66
2023/09/10 01:25:04;;;;;;;5.30;2.90;;;;;;;12.37;61.40;101149.22;1720550;83;21070;-65
2023/09/10 01:27:35;;;;;;;6.85;3.12;;;;;;;12.35;61.53;101145.78;1678435;83;21071;-65
2023/09/10 01:30:09;;;;;;;8.10;3.27;;;;;;;12.33;61.64;101154.73;1720596;83;21058;-65
2023/09/10 01:32:46;;;;;;;8.48;3.37;;;;;;;12.33;61.77;101149.24;1720454;83;21153;-65
2023/09/10 01:35:41;;;;;;;5.92;3.17;;;;;;;12.35;61.79;101155.40;1720643;83;21054;-66
2023/09/10 01:38:24;;;;;;;5.15;2.95;;;;;;;12.34;61.82;101150.95;1718800;83;21058;-65
2023/09/10 01:41:04;;;;;;;7.87;3.33;;;;;;;12.31;61.96;101148.58;1720725;83;21082;-66
2023/09/10 01:43:34;;;;;;;5.35;2.75;;;;;;;12.27;62.08;101150.86;1720423;83;21062;-67
2023/09/10 01:46:03;;;;;;;6.37;3.00;;;;;;;12.22;62.15;101150.58;1720806;83;21082;-66
2023/09/10 01:48:34;;;;;;;5.70;2.92;;;;;;;12.21;62.30;101151.63;1720904;83;21031;-65
2023/09/10 01:51:03;;;;;;;5.45;2.67;;;;;;;12.22;62.45;101151.95;1720540;83;21075;-65
2023/09/10 01:53:33;;;;;;;4.37;2.50;;;;;;;12.24;62.48;101159.48;1720584;83;21042;-67
2023/09/10 01:56:02;;;;;;;4.62;2.80;;;;;;;12.26;62.41;101153.80;1696694;83;21056;-66
2023/09/10 01:58:32;;;;;;;7.58;2.40;;;;;;;12.26;62.38;101154.65;1683289;84;21040;-66
2023/09/10 02:01:01;;;;;;;9.50;3.20;;;;;;;12.25;62.41;101159.81;1683492;85;21091;-65
2023/09/10 02:03:31;;;;;;;7.87;2.80;;;;;;;12.22;62.46;101153.84;1683620;84;21003;-65
2023/09/10 02:06:03;;;;;;;4.70;2.58;;;;;;;12.18;62.61;101151.15;1683443;85;21487;-66
2023/09/10 02:08:32;;;;;;;6.42;3.00;;;;;;;12.19;62.68;101153.70;1673494;85;21051;-65
2023/09/10 02:11:05;;;;;;;6.50;2.60;;;;;;;12.17;62.64;101153.05;1683442;85;21036;-67
2023/09/10 02:13:36;;;;;;;4.85;2.52;;;;;;;12.15;62.70;101157.02;1683468;85;21056;-67
2023/09/10 02:16:06;;;;;;;6.58;2.77;;;;;;;12.10;62.83;101154.84;1683336;85;21067;-65
2023/09/10 02:18:35;;;;;;;9.98;2.92;;;;;;;12.08;62.96;101158.30;1683350;85;21115;-66
2023/09/10 02:21:10;;;;;;;4.92;2.72;;;;;;;12.06;63.09;101147.50;1683356;85;21075;-64
2023/09/10 02:23:42;;;;;;;5.78;2.67;;;;;;;12.08;63.18;101150.58;1683462;85;21043;-66
2023/09/10 02:26:11;;;;;;;5.30;2.95;;;;;;;12.05;63.28;101150.44;1673654;85;21102;-66
2023/09/10 02:28:41;;;;;;;3.95;2.60;;;;;;;12.05;63.35;101151.29;1683299;85;21028;-64
2023/09/10 02:31:12;;;;;;;4.22;2.27;;;;;;;12.02;63.38;101152.19;1673837;85;21091;-65
2023/09/10 02:33:41;;;;;;;6.05;2.87;;;;;;;12.01;63.45;101155.45;1683286;85;21048;-66
2023/09/10 02:36:10;;;;;;;4.67;2.50;;;;;;;12.02;63.48;101148.92;1683247;85;21051;-66
2023/09/10 02:38:40;;;;;;;5.80;2.87;;;;;;;12.02;63.54;101150.81;1683287;85;21043;-65
2023/09/10 02:41:11;;;;;;;5.08;2.75;;;;;;;12.00;63.69;101150.16;1683446;85;21011;-65
2023/09/10 02:43:41;;;;;;;5.60;3.00;;;;;;;11.97;63.79;101147.78;1683486;84;21075;-66
2023/09/10 02:46:10;;;;;;;6.15;2.72;;;;;;;11.97;63.95;101147.78;1683329;85;21039;-66
2023/09/10 02:48:40;;;;;;;4.22;2.65;;;;;;;11.97;64.00;101146.41;1683236;85;21491;-67
2023/09/10 02:51:09;;;;;;;5.10;2.90;;;;;;;11.97;64.10;101150.53;1683286;85;21008;-66
2023/09/10 02:53:39;;;;;;;6.08;3.00;;;;;;;11.96;64.19;101152.42;1683492;85;21024;-65
2023/09/10 02:56:08;;;;;;;5.53;2.90;;;;;;;11.95;64.24;101155.36;1683294;84;21083;-66
2023/09/10 02:58:39;;;;;;;4.60;2.72;;;;;;;11.92;64.30;101157.96;1673759;85;21036;-66
2023/09/10 03:01:09;;;;;;;5.40;3.08;;;;;;;11.88;64.36;101151.14;1683237;84;21071;-65
2023/09/10 03:03:39;;;;;;;6.03;2.80;;;;;;;11.86;64.48;101155.11;1683244;85;21521;-66
2023/09/10 03:06:15;;;;;;;4.62;2.70;;;;;;;11.84;64.66;101153.08;1673493;85;21036;-65
2023/09/10 03:08:44;;;;;;;4.78;2.90;;;;;;;11.82;64.75;101155.16;1674041;85;21020;-66
2023/09/10 03:11:15;;;;;;;6.40;3.10;;;;;;;11.77;64.79;101157.58;1683419;85;21125;-66
2023/09/10 03:13:46;;;;;;;7.40;2.83;;;;;;;11.70;65.07;101155.58;1683370;84;21046;-66
2023/09/10 03:16:16;;;;;;;5.85;2.90;;;;;;;11.67;65.28;101159.19;1683452;85;21099;-66
2023/09/10 03:18:46;;;;;;;8.43;4.40;;;;;;;11.66;65.40;101156.95;1683319;85;21083;-66
2023/09/10 03:21:15;;;;;;;7.08;3.30;;;;;;;11.66;65.58;101158.33;1683440;85;21083;-66
2023/09/10 03:23:45;;;;;;;5.87;3.00;;;;;;;11.66;65.61;101157.48;1683387;85;21313;-67
2023/09/10 03:26:14;;;;;;;9.48;4.40;;;;;;;11.63;65.65;101157.33;1683298;84;21475;-66
2023/09/10 03:28:43;;;;;;;8.10;3.40;;;;;;;11.64;65.76;101162.30;1683436;84;21040;-65
2023/09/10 03:31:13;;;;;;;7.22;3.40;;;;;;;11.65;65.69;101162.12;1601308;89;21077;-66
2023/09/10 03:33:43;;;;;;;5.78;3.12;;;;;;;11.67;65.67;101157.30;1601135;88;21082;-66
2023/09/10 03:36:12;;;;;;;7.35;3.15;;;;;;;11.66;65.76;101159.70;1601482;89;21065;-65
2023/09/10 03:38:43;;;;;;;6.62;3.37;;;;;;;11.64;65.88;101168.64;1601616;89;21097;-66
2023/09/10 03:41:13;;;;;;;8.40;3.35;;;;;;;11.63;66.04;101164.20;1601436;89;21604;-66
2023/09/10 03:43:42;;;;;;;4.83;3.08;;;;;;;11.62;66.13;101163.86;1601200;88;21112;-68
2023/09/10 03:46:12;;;;;;;8.33;3.22;;;;;;;11.62;66.25;101165.75;1601351;88;21085;-65
2023/09/10 03:48:42;;;;;;;6.37;3.40;;;;;;;11.62;66.31;101163.86;1601297;88;21085;-65
2023/09/10 03:51:12;;;;;;;5.65;3.47;;;;;;;11.63;66.34;101173.80;1601422;88;21077;-66
2023/09/10 03:53:41;;;;;;;7.60;3.30;;;;;;;11.64;66.37;101168.64;1601331;89;21576;-66
2023/09/10 03:56:10;;;;;;;7.22;3.60;;;;;;;11.67;66.33;101172.39;1670623;82;21071;-66
2023/09/10 03:58:40;;;;;;;6.80;3.47;;;;;;;11.69;66.27;101163.45;1720594;83;21050;-64
2023/09/10 04:01:10;;;;;;;8.43;3.35;;;;;;;11.70;66.33;101168.42;1720602;83;21186;-65
2023/09/10 04:03:39;;;;;;;6.97;3.67;;;;;;;11.72;66.44;101172.72;1700373;83;21058;-66
2023/09/10 04:06:09;;;;;;;8.73;3.83;;;;;;;11.75;66.52;101168.75;1720831;83;21051;-66
2023/09/10 04:09:00;;;;;;;7.78;3.80;;;;;;;11.72;66.67;101168.60;1720497;83;21062;-65
2023/09/10 04:11:32;;;;;;;7.33;3.98;;;;;;;11.71;66.77;101164.15;1712887;83;21057;-65
2023/09/10 04:14:01;;;;;;;8.98;4.15;;;;;;;11.72;66.93;101167.23;1712838;83;21033;-66
2023/09/10 04:16:31;;;;;;;8.00;3.52;;;;;;;11.74;66.92;101170.64;1713107;82;21451;-65
2023/09/10 04:19:02;;;;;;;5.65;3.20;;;;;;;11.74;66.96;101166.52;1713108;82;21495;-65
2023/09/10 04:21:31;;;;;;;11.50;4.22;;;;;;;11.78;66.95;101173.05;1712870;84;21094;-64
2023/09/10 04:24:01;;;;;;;8.68;3.92;;;;;;;11.82;66.89;101172.48;1712837;82;21037;-64
2023/09/10 04:26:31;;;;;;;7.95;3.50;;;;;;;11.88;66.78;101166.77;1712988;83;21076;-66
2023/09/10 04:29:00;;;;;;;7.67;3.85;;;;;;;11.93;66.56;101169.80;1713181;84;21054;-65
2023/09/10 04:31:29;;;;;;;10.32;3.83;;;;;;;11.95;66.48;101174.06;1697246;84;21028;-66
2023/09/10 04:33:59;;;;;;;9.53;3.70;;;;;;;11.97;66.42;101169.75;1695772;84;21014;-65
2023/09/10 04:36:29;;;;;;;7.10;3.60;;;;;;;12.02;66.24;101171.41;1712876;84;21061;-63
2023/09/10 04:38:59;;;;;;;6.92;3.92;;;;;;;12.08;66.03;101171.18;1712796;84;20990;-66
2023/09/10 04:41:28;;;;;;;8.65;4.08;;;;;;;12.11;65.88;101168.91;1713193;82;21049;-64
2023/09/10 04:43:56;;;;;;;8.35;3.95;;;;;;;12.16;65.72;101173.31;1712810;82;21029;-65
2023/09/10 04:46:27;;;;;;;11.88;4.95;;;;;;;12.20;65.62;101166.40;1713046;84;21041;-65
2023/09/10 04:48:58;;;;;;;9.53;4.45;;;;;;;12.25;65.55;101165.30;1695676;84;21026;-66
2023/09/10 04:51:26;;;;;;;9.55;4.50;;;;;;;12.29;65.47;101163.88;1713059;82;21006;-65
2023/09/10 04:53:56;;;;;;;8.30;3.70;;;;;;;12.32;65.35;101164.88;1712904;84;21743;-65
2023/09/10 04:56:26;;;;;;;7.62;4.20;;;;;;;12.36;65.33;101166.23;1712877;84;21065;-65
2023/09/10 04:58:57;;;;;;;8.83;4.25;;;;;;;12.41;65.23;101167.03;1712839;82;21473;-64
2023/09/10 05:01:28;;;;;;;9.95;4.62;;;;;;;12.48;65.14;101158.87;1672518;84;21477;-65
2023/09/10 05:03:57;;;;;;;12.25;5.28;;;;;;;12.55;65.08;101163.94;1712757;82;21037;-67
2023/09/10 05:06:26;;;;;;;8.55;4.60;;;;;;;12.63;65.02;101167.95;1713066;82;21033;-65
2023/09/10 05:08:57;;;;;;;11.85;5.10;;;;;;;12.72;64.93;101167.31;1713057;83;20989;-65
2023/09/10 05:11:29;;;;;;;8.43;4.95;;;;;;;12.80;64.81;101174.93;1708197;84;21045;-66
2023/09/10 05:13:58;;;;;;;10.43;4.95;;;;;;;12.88;64.69;101178.09;1708091;84;21085;-66
2023/09/10 05:16:29;;;;;;;12.18;5.12;;;;;;;12.95;64.60;101176.27;1707923;82;21069;-67
2023/09/10 05:19:00;;;;;;;12.37;5.80;;;;;;;13.01;64.53;101173.63;1708026;83;21057;-66
2023/09/10 05:21:29;;;;;;;10.03;5.12;;;;;;;13.09;64.45;101168.52;1690898;84;21049;-66
2023/09/10 05:23:59;;;;;;;14.03;5.55;;;;;;;13.17;64.35;101173.08;1632243;88;21062;-66
2023/09/10 05:26:28;;;;;;;12.40;5.50;;;;;;;13.24;64.22;101171.24;1632395;86;21066;-65
2023/09/10 05:28:57;;;;;;;8.35;5.10;;;;;;;13.29;63.92;101172.88;1632310;88;21109;-65
2023/09/10 05:31:27;;;;;;;9.98;5.15;;;;;;;13.36;63.69;101171.05;1632547;88;21054;-66
2023/09/10 05:33:56;;;;;;;8.08;4.70;;;;;;;13.43;63.48;101173.33;1632326;88;21517;-66
2023/09/10 05:36:27;;;;;;;10.72;5.35;;;;;;;13.50;63.25;101167.36;1632393;88;21525;-65
2023/09/10 05:38:57;;;;;;;15.55;5.50;;;;;;;13.57;63.02;101169.65;1610871;88;21498;-67
2023/09/10 05:41:26;;;;;;;7.35;4.47;;;;;;;13.64;62.89;101171.08;1632420;86;21061;-69
2023/09/10 05:43:55;;;;;;;11.43;5.60;;;;;;;13.72;62.78;101175.63;1632355;86;21089;-66
2023/09/10 05:46:26;;;;;;;8.95;4.65;;;;;;;13.78;62.38;101173.45;1610900;88;21525;-66
2023/09/10 05:48:57;;;;;;;8.70;4.53;;;;;;;13.85;62.11;101177.11;1680465;83;21046;-65
2023/09/10 05:51:26;;;;;;;12.75;4.75;;;;;;;13.92;61.87;101176.10;1708204;82;20990;-66
2023/09/10 05:53:55;;;;;;;8.05;4.65;;;;;;;14.00;61.65;101184.74;1707935;82;21037;-66
2023/09/10 05:56:27;;;;;;;12.73;5.20;;;;;;;14.06;61.40;101181.19;1708150;84;21061;-67
2023/09/10 05:58:56;;;;;;;10.20;4.65;;;;;;;14.15;61.19;101182.73;1708165;84;21065;-67
2023/09/10 06:01:26;;;;;;;10.13;4.80;;;;;;;14.22;60.94;101182.24;1707998;82;21069;-66
2023/09/10 06:03:57;;;;;;;9.18;4.10;;;;;;;14.29;60.39;101178.15;1690539;84;21017;-66
2023/09/10 06:06:27;;;;;;;8.35;3.62;;;;;;;14.37;59.92;101184.05;1690805;84;21053;-66
2023/09/10 06:08:57;;;;;;;11.33;4.15;;;;;;;14.42;59.48;101191.19;1708154;83;21037;-65
2023/09/10 06:11:27;;;;;;;14.68;4.20;;;;;;;14.48;59.41;101191.78;1707854;84;21109;-65
2023/09/10 06:13:56;;;;;;;7.42;3.05;;;;;;;14.54;59.18;101187.68;1708074;82;21077;-66
2023/09/10 06:16:26;;;;;;;3.85;2.37;;;;;;;14.62;58.78;101189.41;1690949;84;21034;-66
2023/09/10 06:18:56;;;;;;;10.85;3.12;;;;;;;14.68;58.45;101196.87;1708140;82;21334;-67
2023/09/10 06:21:26;;;;;;;4.65;2.80;;;;;;;14.74;58.39;101197.42;1708226;84;21089;-65
2023/09/10 06:23:55;;;;;;;5.25;2.87;;;;;;;14.80;58.12;101197.98;1690673;84;21014;-66
2023/09/10 06:26:25;;;;;;;6.22;2.20;;;;;;;14.86;57.86;101194.92;1707981;82;21446;-66
2023/09/10 06:28:54;;;;;;;4.83;2.47;;;;;;;14.91;57.68;101193.25;1708159;84;21050;-65
2023/09/10 06:31:24;;;;;;;4.20;2.30;;;;;;;14.99;57.13;101201.91;1707978;82;21065;-65
2023/09/10 06:33:55;;;;;;;3.67;2.12;;;;;;;15.08;56.45;101198.43;1708044;84;21445;-66
2023/09/10 06:36:24;;;;;;;4.50;1.80;;;;;;;15.13;56.05;101197.28;1708132;84;21084;-65
2023/09/10 06:38:54;;;;;;;4.20;2.47;;;;;;;15.20;55.63;101198.14;1707926;84;21030;-66
2023/09/10 06:41:23;;;;;;;5.33;1.77;;;;;;;15.24;55.23;101195.28;1708012;82;21041;-67
2023/09/10 06:43:52;;;;;;;3.45;1.80;;;;;;;15.28;55.00;101197.95;1708021;84;21002;-66
2023/09/10 06:46:24;;;;;;;8.28;1.90;;;;;;;15.33;54.61;101192.65;1690648;84;21050;-66
2023/09/10 06:48:53;;;;;;;5.28;1.60;;;;;;;15.37;54.26;101193.93;1708246;84;21081;-66
2023/09/10 06:51:23;;;;;;;2.80;1.80;;;;;;;15.41;53.91;101195.21;1707984;83;21053;-66
2023/09/10 06:53:52;;;;;;;3.77;2.17;;;;;;;15.48;53.44;101193.84;1707824;83;21073;-67
2023/09/10 06:56:21;;;;;;;5.70;1.70;;;;;;;15.52;53.07;101201.49;1707904;82;21073;-67
2023/09/10 06:58:50;;;;;;;2.77;1.87;;;;;;;15.55;52.97;101199.69;1707927;84;21097;-66
2023/09/10 07:01:21;;;;;;;3.70;2.00;;;;;;;15.58;52.61;101195.69;1715641;82;21042;-67
2023/09/10 07:03:53;;;;;;;5.33;2.05;;;;;;;15.62;52.52;101193.39;1707864;84;21481;-67
2023/09/10 07:06:22;;;;;;;4.92;2.35;;;;;;;15.65;52.63;101194.34;1708147;83;21409;-66
2023/09/10 07:08:51;;;;;;;3.60;2.20;;;;;;;15.69;52.95;101191.47;1715517;83;21101;-66
2023/09/10 07:11:21;;;;;;;4.80;2.33;;;;;;;15.73;53.00;101189.98;1707848;84;21584;-65
2023/09/10 07:13:51;;;;;;;5.67;2.37;;;;;;;15.76;52.60;101189.56;1707786;83;21053;-66
2023/09/10 07:16:22;;;;;;;3.25;1.80;;;;;;;15.83;52.13;101188.50;1632377;88;21326;-66
2023/09/10 07:18:51;;;;;;;4.10;2.02;;;;;;;15.91;51.76;101180.52;1611587;88;21129;-66
2023/09/10 07:21:21;;;;;;;2.77;1.50;;;;;;;15.98;51.13;101188.28;1610950;88;21114;-68
2023/09/10 07:23:50;;;;;;;4.03;1.17;;;;;;;16.04;50.50;101187.95;1632597;88;21142;-65
2023/09/10 07:26:21;;;;;;;2.83;1.30;;;;;;;16.08;50.15;101185.08;1632422;88;21094;-66
2023/09/10 07:28:51;;;;;;;1.98;1.30;;;;;;;16.13;49.66;101186.13;1632653;88;21045;-68
2023/09/10 07:31:20;;;;;;;3.72;1.45;;;;;;;16.18;48.90;101191.86;1632626;88;21066;-67
2023/09/10 07:33:49;;;;;;;4.50;1.80;;;;;;;16.22;48.95;101192.81;1649073;84;21074;-65
2023/09/10 07:36:20;;;;;;;2.70;1.72;;;;;;;16.24;49.46;101189.30;1708011;84;21529;-65
2023/09/10 07:38:50;;;;;;;4.25;2.00;;;;;;;16.26;49.58;101192.20;1708414;82;21002;-66
2023/09/10 07:41:21;;;;;;;3.72;1.80;;;;;;;16.28;49.43;101194.75;1708017;84;21461;-67
2023/09/10 07:43:51;;;;;;;2.45;1.60;;;;;;;16.28;49.37;101192.83;1708185;82;21045;-68
2023/09/10 07:46:20;;;;;;;3.33;1.87;;;;;;;16.34;48.88;101198.03;1708286;84;21026;-65
2023/09/10 07:48:49;;;;;;;6.03;1.85;;;;;;;16.39;48.38;101187.17;1708326;84;21045;-65
2023/09/10 07:51:18;;;;;;;2.77;1.62;;;;;;;16.55;47.88;101192.23;1708208;82;21049;-64
2023/09/10 07:53:47;;;;;;;3.42;2.02;;;;;;;16.91;47.61;101186.19;1707934;84;21045;-66
2023/09/10 07:56:17;;;;;;;2.52;1.90;;;;;;;17.46;46.23;101186.50;1708181;84;21049;-68
2023/09/10 07:58:46;;;;;;;3.27;2.33;;;;;;;17.99;45.56;101186.98;1708374;82;21061;-67
2023/09/10 08:01:15;;;;;;;5.12;2.20;;;;;;;18.51;44.97;101184.77;1708149;82;21096;-65
2023/09/10 08:03:45;;;;;;;3.55;2.17;;;;;;;19.11;43.69;101175.20;1708078;82;21137;-68
2023/09/10 08:06:15;;;;;;;2.50;2.05;;;;;;;19.59;42.52;101169.61;1708243;84;21033;-67
2023/09/10 08:08:45;;;;;;;3.12;2.20;;;;;;;20.08;41.08;101170.81;1708200;84;21031;-64
2023/09/10 08:11:14;;;;;;;4.17;2.15;;;;;;;20.47;39.68;101170.12;1675534;84;21111;-69
2023/09/10 08:13:42;;;;;;;5.65;2.40;;;;;;;20.76;39.53;101168.78;1700002;84;21129;-67
2023/09/10 08:16:13;;;;;;;5.72;2.20;;;;;;;21.06;38.63;101170.83;1698387;84;21854;-67
2023/09/10 08:18:45;;;;;;;7.33;2.42;;;;;;;21.38;38.36;101169.80;1698604;84;21054;-63
2023/09/10 08:21:13;;;;;;;2.72;1.80;;;;;;;21.67;37.65;101169.79;1698499;84;21046;-65
2023/09/10 08:23:43;;;;;;;2.10;1.80;;;;;;;22.04;37.04;101167.36;1698305;84;21513;-65
2023/09/10 08:26:12;;;;;;;3.10;1.87;;;;;;;22.48;36.20;101164.70;1698256;83;21133;-65
2023/09/10 08:28:42;;;;;;;4.45;1.87;;;;;;;22.61;35.50;101162.91;1698514;83;21078;-66
2023/09/10 08:31:13;;;;;;;2.75;1.70;;;;;;;22.58;35.07;101157.84;1698559;84;21066;-66
2023/09/10 08:33:43;;;;;;;2.20;1.40;;;;;;;22.67;35.37;101157.69;1698261;84;21121;-67
2023/09/10 08:36:12;;;;;;;3.00;1.60;;;;;;;22.88;34.70;101155.51;1698294;83;21066;-67
2023/09/10 08:38:42;;;;;;;3.40;1.42;;;;;;;23.06;34.52;101156.56;1698449;83;21070;-67
2023/09/10 08:41:33;;;;;;;3.55;1.47;;;;;;;23.36;34.22;101154.64;1698483;84;21066;-67
2023/09/10 08:44:04;;;;;;;5.17;1.80;;;;;;;23.64;33.19;101143.77;1698493;83;21419;-66
2023/09/10 08:46:34;;;;;;;4.33;1.37;;;;;;;23.60;33.03;101141.22;1698525;84;21497;-67
2023/09/10 08:49:03;;;;;;;5.30;1.98;;;;;;;23.67;33.29;101150.23;1698229;83;21146;-66
2023/09/10 08:51:34;;;;;;;3.83;1.40;;;;;;;23.56;33.26;101154.05;1698305;83;21446;-67
2023/09/10 08:54:03;;;;;;;5.33;1.40;;;;;;;23.40;32.91;101146.56;1698600;83;21082;-66
2023/09/10 08:56:34;;;;;;;2.27;1.45;;;;;;;23.19;33.15;101149.70;1698583;84;21033;-68
2023/09/10 08:59:03;;;;;;;3.15;1.32;;;;;;;22.93;33.19;101153.33;1698494;83;21006;-68
2023/09/10 09:01:32;;;;;;;2.83;1.25;;;;;;;22.78;33.24;101148.36;1698455;83;21034;-67
2023/09/10 09:04:03;;;;;;;3.12;1.37;;;;;;;22.56;33.25;101151.67;1660654;86;21042;-67
2023/09/10 09:06:32;;;;;;;2.77;1.40;;;;;;;22.24;33.77;101145.37;1660796;86;21515;-67
2023/09/10 09:09:07;;;;;;;2.27;1.37;;;;;;;21.80;34.41;101149.37;1660750;86;21086;-66
2023/09/10 09:11:37;;;;;;;4.28;1.80;;;;;;;21.55;34.88;101143.37;1661540;86;21145;-68
2023/09/10 09:14:08;;;;;;;4.67;1.30;;;;;;;21.40;35.23;101146.70;1662643;85;21117;-66
2023/09/10 09:16:40;;;;;;;1.95;1.27;;;;;;;21.34;35.40;101140.73;1662903;85;21038;-67
2023/09/10 09:19:11;;;;;;;2.65;1.72;;;;;;;21.26;35.18;101134.72;1661949;85;21647;-67
2023/09/10 09:21:44;;;;;;;3.40;1.30;;;;;;;21.18;35.72;101134.00;1641704;86;21117;-68
2023/09/10 09:24:14;;;;;;;3.25;1.40;;;;;;;21.17;35.82;101136.48;1687172;84;21067;-68
2023/09/10 09:26:43;;;;;;;3.02;1.50;;;;;;;21.03;36.33;101132.31;1702134;83;21078;-65
2023/09/10 09:29:12;;;;;;;2.55;1.52;;;;;;;20.97;36.55;101133.86;1682524;83;21563;-66
2023/09/10 09:31:43;;;;;;;2.15;1.45;;;;;;;20.89;36.60;101129.53;1680553;85;21055;-67
2023/09/10 09:34:12;;;;;;;5.40;1.87;;;;;;;20.74;35.99;101128.64;1680606;84;21133;-71
2023/09/10 09:36:42;;;;;;;3.45;1.87;;;;;;;20.66;36.49;101129.03;1688878;84;21035;-69
2023/09/10 09:39:17;;;;;;;4.83;1.70;;;;;;;20.64;36.17;101124.80;1701915;84;21023;-67
2023/09/10 09:41:51;;;;;;;3.35;1.80;;;;;;;20.57;35.84;101117.44;1701937;84;21024;-67
2023/09/10 09:44:20;;;;;;;3.30;1.55;;;;;;;20.49;36.26;101122.00;1701672;84;21079;-65
2023/09/10 09:46:50;;;;;;;2.70;1.62;;;;;;;20.45;36.41;101115.23;1702056;84;21069;-67
2023/09/10 09:49:20;;;;;;;2.50;1.62;;;;;;;20.43;36.55;101113.23;1701737;84;21031;-69
2023/09/10 09:51:49;;;;;;;3.60;1.72;;;;;;;20.39;36.69;101112.55;1701871;84;21051;-68
2023/09/10 09:54:19;;;;;;;5.25;1.65;;;;;;;20.33;37.04;101112.14;1667339;85;21486;-66
2023/09/10 09:56:49;;;;;;;2.62;1.77;;;;;;;20.30;37.21;101114.02;1677127;85;21623;-67
2023/09/10 09:59:20;;;;;;;2.08;1.50;;;;;;;20.30;37.45;101112.63;1680674;85;21100;-67
2023/09/10 10:01:50;;;;;;;5.30;1.70;;;;;;;20.36;37.54;101111.10;1680353;84;21448;-73
2023/09/10 10:04:20;;;;;;;5.90;1.50;;;;;;;20.40;37.45;101103.98;1680628;84;21085;-67
2023/09/10 10:06:50;;;;;;;2.15;1.52;;;;;;;20.40;37.57;101097.02;1655025;85;21493;-66
2023/09/10 10:09:19;;;;;;;3.65;1.57;;;;;;;20.45;37.77;101094.34;1680309;84;21029;-66
2023/09/10 10:11:49;;;;;;;3.67;1.60;;;;;;;20.48;37.29;101092.47;1674303;84;21043;-68
2023/09/10 10:14:18;;;;;;;3.52;1.70;;;;;;;20.49;37.49;101091.91;1666837;85;21070;-66
2023/09/10 10:16:47;;;;;;;3.55;1.92;;;;;;;20.46;37.51;101097.43;1666988;86;21054;-66
2023/09/10 10:21:57;;;;;;;1.80;1.40;;;;;;;20.40;37.44;101095.63;1666927;85;21157;-66
2023/09/10 10:24:27;;;;;;;3.90;1.77;;;;;;;20.38;37.58;101088.04;1666763;86;21494;-65
2023/09/10 10:26:56;;;;;;;3.05;1.60;;;;;;;20.38;37.35;101086.64;1666868;85;21031;-67
2023/09/10 10:29:26;;;;;;;5.00;1.60;;;;;;;20.38;37.52;101089.98;1692622;84;21087;-67
2023/09/10 10:32:04;;;;;;;3.02;1.70;;;;;;;20.39;37.54;101084.71;1678979;85;21075;-68
2023/09/10 10:34:40;;;;;;;2.47;1.60;;;;;;;20.39;37.34;101077.23;1685976;85;21071;-66
2023/09/10 10:37:27;;;;;;;2.22;1.50;;;;;;;20.36;36.87;101077.70;1692534;85;21031;-66
2023/09/10 10:40:34;;;;;;;2.10;1.80;;;;;;;20.30;36.80;101078.68;1691623;84;21069;-68
2023/09/10 10:43:18;;;;;;;2.75;1.42;;;;;;;20.27;37.12;101076.39;1692635;84;21019;-68
2023/09/10 10:45:48;;;;;;;2.72;1.60;;;;;;;20.26;37.04;101065.80;1639090;86;21505;-65
2023/09/10 10:48:20;;;;;;;6.90;2.37;;;;;;;20.30;36.64;101067.55;1692606;85;21604;-66
2023/09/10 10:50:50;;;;;;;5.37;1.72;;;;;;;20.31;36.73;101062.28;1692830;85;21464;-67
2023/09/10 10:53:24;;;;;;;3.17;1.50;;;;;;;20.35;36.87;101058.45;1704663;84;21027;-65
2023/09/10 10:55:57;;;;;;;2.90;1.70;;;;;;;20.41;36.73;101055.56;1704672;83;21894;-67
2023/09/10 10:58:28;;;;;;;4.47;1.80;;;;;;;20.43;36.74;101045.58;1706087;83;21042;-65
2023/09/10 11:00:58;;;;;;;2.45;1.65;;;;;;;20.46;37.03;101044.53;1705127;83;21034;-68
2023/09/10 11:03:28;;;;;;;3.17;1.30;;;;;;;20.50;37.06;101046.27;1690576;84;21085;-68
2023/09/10 11:06:05;;;;;;;3.62;1.70;;;;;;;20.52;36.85;101045.48;1704455;84;21176;-66
2023/09/10 11:08:45;;;;;;;2.00;1.35;;;;;;;20.53;36.75;101044.39;1704574;83;21470;-68
2023/09/10 11:11:37;;;;;;;5.87;1.62;;;;;;;20.53;36.19;101040.21;1692986;82;21446;-69
2023/09/10 11:14:09;;;;;;;3.15;1.40;;;;;;;20.54;36.48;101039.97;1722242;83;21073;-67
2023/09/10 11:16:43;;;;;;;2.35;1.30;;;;;;;20.55;36.41;101029.13;1722495;83;21499;-68
2023/09/10 11:19:44;;;;;;;2.30;1.60;;;;;;;20.55;36.35;101031.91;1722512;83;21076;-65
2023/09/10 11:22:13;;;;;;;2.83;1.30;;;;;;;20.53;36.55;101021.56;1722422;82;21633;-68
2023/09/10 11:24:42;;;;;;;4.05;1.75;;;;;;;20.51;36.19;101023.75;1722418;82;21507;-66
2023/09/10 11:27:26;;;;;;;2.62;1.50;;;;;;;20.51;36.30;101031.27;1717023;82;21025;-67
2023/09/10 11:30:15;;;;;;;2.60;1.30;;;;;;;20.51;36.26;101020.13;1690135;83;21240;-68
2023/09/10 11:32:44;;;;;;;3.98;1.50;;;;;;;20.50;36.01;101024.00;1651509;86;21096;-66
2023/09/10 11:35:23;;;;;;;3.00;1.70;;;;;;;20.42;35.86;101019.67;1651567;87;21145;-66
2023/09/10 11:38:00;;;;;;;3.12;1.40;;;;;;;20.40;35.98;101014.91;1651408;87;21108;-70
2023/09/10 11:40:27;;;;;;;1.92;1.30;;;;;;;20.44;36.04;101014.70;1651845;86;21108;-66
2023/09/10 11:42:56;;;;;;;4.90;1.60;;;;;;;20.48;36.00;101012.27;1651725;87;21072;-68
2023/09/10 11:45:30;;;;;;;2.27;1.40;;;;;;;20.55;35.81;101012.97;1651370;87;21583;-68